• Join FlightAware (Why Join?)
  • Login
  • US Flag 
09:38PM EST


 

Airport Tracker/Info


-or-


 

Live Flight TrackerFlight Track Log ✈ SWA1086 ✈ 14-Apr-2013 ✈ KDAL - KOKC

Flight Track Log - Related Links

Times and Time Zones

All times are in EDT time to prevent confusion due to time zone crossing. See the SWA1086 flight status page for this flight to view local times or setup timezone preferences in your user account.

Time Position Orientation Groundspeed Altitude Reporting Facility
EDT Latitude Longitude Course Direction KTS MPH feet Rate Location/Type
09:36AM 32.8000 -96.8000 346° North 199 229 2,800  Level Dallas / Fort Worth TRACON
09:37AM 32.8333 -96.7500 52° Northeast 268 308 5,300 2,580 Climbing Dallas / Fort Worth TRACON
09:38AM 32.9000 -96.7500 360° North 280 322 8,000 2,460 Climbing Dallas / Fort Worth TRACON
09:40AM 33.0639 -96.8458 334° Northwest 295 339 12,800 2,400 Climbing Fort Worth Center
09:41AM 33.2155 -96.9280 346° North  Level FlightAware Approximate
09:41AM 33.1475 -96.8700 346° North 328 377 15,600  Level Fort Worth Center
09:42AM 33.2583 -96.9042 346° North 353 406 19,200 3,300 Climbing Fort Worth Center
09:43AM 33.3606 -96.9333 347° North 376 433 22,200 2,520 Climbing Fort Worth Center
09:44AM 33.4650 -96.9653 346° North 376 433 24,300 2,040 Climbing Fort Worth Center
09:45AM 33.5694 -96.9972 346° North 376 433 26,300 1,920 Climbing Fort Worth Center
09:46AM 33.6803 -97.0317 346° North 392 451 28,200 1,320 Climbing Fort Worth Center
09:47AM 33.7953 -97.0661 346° North 402 463 29,000 360 Climbing Fort Worth Center
09:48AM 33.9058 -97.0981 347° North 412 474 29,000  Level Fort Worth Center
09:49AM 34.0206 -97.1328 346° North 412 474 29,000 -300 Level Fort Worth Center
09:50AM 34.1167 -97.1625 346° North 412 474 28,400 -1,620 Descending Fort Worth Center
09:51AM 34.2294 -97.2000 345° North 407 468 25,800 -2,520 Descending Fort Worth Center
09:52AM 34.3358 -97.2325 346° North 401 461 23,400 -2,400 Descending Fort Worth Center
09:53AM 34.4383 -97.2675 344° North 386 444 21,100 -2,340 Descending Fort Worth Center
09:54AM 34.5364 -97.2950 347° North 371 427 18,800 -2,280 Descending Fort Worth Center
09:55AM 34.6344 -97.3278 345° North 366 421 16,600 -2,280 Descending Fort Worth Center
09:56AM 34.7367 -97.3553 348° North 377 434 14,500 -2,220 Descending Fort Worth Center
09:57AM 34.8306 -97.3883 344° North 353 406 12,400 -1,920 Descending Fort Worth Center
09:58AM 34.9286 -97.4111 349° North 319 367 10,700 -1,680 Descending Fort Worth Center
09:59AM 35.0078 -97.4261 351° North 291 335 9,100 -1,740 Descending Fort Worth Center
10:00AM 35.0892 -97.4467 348° North 294 338 7,200 -1,500 Descending Fort Worth Center
10:01AM 35.1725 -97.4592 353° North 299 344 6,100 -600 Descending Fort Worth Center
10:02AM 35.2561 -97.4797 349° North 305 351 6,000 -720 Descending Fort Worth Center
10:03AM 35.3375 -97.4950 351° North 299 344 4,700 -1,320 Descending Fort Worth Center
10:04AM 35.4167 -97.5053 354° North 298 343 3,400 -960 Descending Fort Worth Center
10:05AM 35.4603 -97.5511 319° Northwest 240 276 2,800 -600 Descending Fort Worth Center
10:06AM 35.4478 -97.5842 245° Southwest 151 174 2,200 -600 Descending Fort Worth Center
10:07AM 35.4164 -97.5919 191° South 75 86 1,600 -480 Descending Fort Worth Center
10:08AM 35.4019 -97.6147 232° Southwest 75 86 1,300 -300 Descending Fort Worth Center